createdAt,value
2017-04-14T00:00:25.698Z,10.68
2017-04-14T00:01:25.961Z,9.32
2017-04-14T00:02:27.020Z,9.43
2017-04-14T00:03:27.585Z,12.13
2017-04-14T00:04:27.895Z,9.97
2017-04-14T00:05:28.312Z,10.38
2017-04-14T00:06:29.168Z,11.42
2017-04-14T00:07:29.667Z,12.80
2017-04-14T00:08:30.158Z,9.38
2017-04-14T00:09:30.630Z,10.05
2017-04-14T00:10:30.933Z,8.95
2017-04-14T00:11:31.231Z,12.82
2017-04-14T00:12:31.513Z,8.82
2017-04-14T00:13:31.823Z,10.92
2017-04-14T00:14:32.475Z,8.25
2017-04-14T00:15:32.797Z,11.13
2017-04-14T00:16:33.798Z,16.35
2017-04-14T00:17:34.234Z,11.67
2017-04-14T00:18:34.750Z,9.57
2017-04-14T00:19:35.590Z,11.00
2017-04-14T00:20:35.905Z,10.50
2017-04-14T00:21:36.507Z,11.10
2017-04-14T00:22:36.767Z,9.28
2017-04-14T00:23:37.284Z,9.73
2017-04-14T00:24:37.668Z,12.30
2017-04-14T00:25:37.993Z,16.13
2017-04-14T00:26:39.472Z,12.62
2017-04-14T00:27:39.710Z,10.38
2017-04-14T00:28:40.046Z,12.35
2017-04-14T00:29:41.109Z,13.85
2017-04-14T00:30:41.356Z,13.27
2017-04-14T00:31:41.677Z,11.07
2017-04-14T00:32:41.914Z,13.53
2017-04-14T00:33:42.185Z,9.23
2017-04-14T00:34:42.446Z,10.23
2017-04-14T00:35:42.790Z,10.53
2017-04-14T00:36:43.094Z,13.95
2017-04-14T00:37:43.368Z,12.98
2017-04-14T00:38:43.673Z,13.30
2017-04-14T00:39:43.918Z,18.23
2017-04-14T00:40:44.168Z,13.50
2017-04-14T00:41:44.472Z,9.10
2017-04-14T00:42:44.717Z,12.40
2017-04-14T00:43:45.015Z,15.10
2017-04-14T00:44:45.263Z,13.53
2017-04-14T00:45:45.523Z,11.93
2017-04-14T00:46:45.948Z,17.53
2017-04-14T00:47:46.246Z,15.55
2017-04-14T00:48:46.648Z,11.17
2017-04-14T00:49:47.079Z,14.60
2017-04-14T00:50:47.370Z,15.02
2017-04-14T00:51:47.710Z,11.17
2017-04-14T00:52:48.289Z,10.40
2017-04-14T00:53:48.775Z,12.17
2017-04-14T00:54:49.318Z,12.70
2017-04-14T00:55:49.803Z,14.37
2017-04-14T00:56:50.857Z,14.60
2017-04-14T00:57:51.153Z,15.90
2017-04-14T00:58:52.177Z,12.83
2017-04-14T00:59:52.969Z,19.43
2017-04-14T01:00:54.359Z,17.43
2017-04-14T01:01:55.111Z,14.37
2017-04-14T01:02:55.429Z,16.68
2017-04-14T01:03:56.122Z,12.18
2017-04-14T01:04:56.411Z,17.47
2017-04-14T01:05:56.742Z,15.57
2017-04-14T01:06:57.309Z,16.75
2017-04-14T01:07:57.578Z,10.93
2017-04-14T01:08:57.863Z,13.40
2017-04-14T01:09:58.099Z,11.85
2017-04-14T01:10:58.357Z,13.13
2017-04-14T01:11:58.710Z,14.40
2017-04-14T01:12:59.102Z,15.73
2017-04-14T01:13:59.382Z,19.72
2017-04-14T01:14:59.754Z,11.67
2017-04-14T01:16:00.346Z,9.62
2017-04-14T01:17:00.638Z,12.68
2017-04-14T01:18:00.902Z,18.07
2017-04-14T01:19:01.222Z,12.78
2017-04-14T01:20:01.678Z,11.08
2017-04-14T01:21:01.971Z,11.08
2017-04-14T01:22:02.314Z,10.73
2017-04-14T01:23:02.888Z,11.30
2017-04-14T01:24:03.174Z,11.47
2017-04-14T01:25:03.538Z,16.75
2017-04-14T01:26:03.866Z,14.25
2017-04-14T01:27:04.247Z,9.60
2017-04-14T01:28:04.522Z,14.28
2017-04-14T01:29:04.829Z,13.82
2017-04-14T01:30:05.883Z,11.85
2017-04-14T01:31:06.134Z,11.38
2017-04-14T01:32:06.528Z,12.00
2017-04-14T01:33:06.781Z,11.77
2017-04-14T01:34:07.200Z,18.35
2017-04-14T01:35:07.508Z,10.65
2017-04-14T01:36:07.762Z,16.30
2017-04-14T01:37:08.073Z,16.07
2017-04-14T01:38:08.757Z,13.00
2017-04-14T01:39:09.421Z,13.03
2017-04-14T01:40:10.541Z,11.97
2017-04-14T01:41:10.901Z,10.97
2017-04-14T01:42:11.233Z,14.73
2017-04-14T01:43:11.532Z,13.15
2017-04-14T01:44:11.302Z,13.12
2017-04-14T01:45:11.549Z,10.83
2017-04-14T01:46:12.066Z,11.77
2017-04-14T01:47:12.361Z,14.38
2017-04-14T01:48:11.879Z,12.87
2017-04-14T01:49:12.162Z,12.63
2017-04-14T01:50:12.484Z,10.35
2017-04-14T01:51:12.746Z,11.58
2017-04-14T01:52:13.062Z,13.02
2017-04-14T01:53:13.308Z,11.47
2017-04-14T01:54:13.582Z,10.55
2017-04-14T01:55:13.849Z,9.63
2017-04-14T01:56:14.126Z,13.05
2017-04-14T01:57:14.398Z,13.25
2017-04-14T01:58:14.753Z,10.08
2017-04-14T01:59:15.125Z,10.43
2017-04-14T02:00:15.517Z,10.62
2017-04-14T02:01:16.137Z,11.30
2017-04-14T02:02:16.454Z,7.28
2017-04-14T02:03:16.787Z,10.30
2017-04-14T02:04:17.038Z,14.30
2017-04-14T02:05:17.254Z,13.62
2017-04-14T02:06:17.490Z,8.22
2017-04-14T02:07:17.773Z,11.58
2017-04-14T02:08:18.034Z,16.12
2017-04-14T02:09:18.995Z,9.43
2017-04-14T02:10:19.235Z,10.93
2017-04-14T02:11:19.513Z,14.00
2017-04-14T02:12:19.834Z,9.97
2017-04-14T02:13:20.063Z,14.47
2017-04-14T02:14:20.292Z,10.83
2017-04-14T02:15:20.927Z,12.92
2017-04-14T02:16:21.943Z,13.37
2017-04-14T02:17:22.245Z,13.18
2017-04-14T02:18:22.498Z,13.10
2017-04-14T02:19:22.787Z,12.43
2017-04-14T02:20:23.092Z,14.63
2017-04-14T02:21:23.314Z,11.27
2017-04-14T02:22:23.650Z,7.45
2017-04-14T02:23:23.894Z,9.75
2017-04-14T02:24:24.387Z,10.17
2017-04-14T02:25:24.662Z,11.37
2017-04-14T02:26:24.947Z,9.67
2017-04-14T02:27:25.609Z,10.62
2017-04-14T02:28:25.902Z,8.75
2017-04-14T02:29:26.350Z,12.27
2017-04-14T02:30:26.681Z,11.80
2017-04-14T02:31:26.929Z,8.72
2017-04-14T02:32:27.200Z,7.92
2017-04-14T02:33:28.038Z,12.40
2017-04-14T02:34:29.047Z,11.00
2017-04-14T02:35:29.318Z,15.07
2017-04-14T02:36:29.600Z,12.82
2017-04-14T02:37:30.709Z,9.52
2017-04-14T02:38:30.944Z,10.23
2017-04-14T02:39:31.322Z,8.62
2017-04-14T02:40:31.725Z,11.65
2017-04-14T02:41:31.954Z,11.28
2017-04-14T02:42:32.218Z,14.05
2017-04-14T02:43:32.452Z,13.82
2017-04-14T02:44:32.665Z,12.55
2017-04-14T02:45:32.886Z,9.97
2017-04-14T02:46:33.114Z,10.95
2017-04-14T02:47:34.216Z,10.28
2017-04-14T02:48:34.466Z,17.08
2017-04-14T02:49:34.954Z,14.62
2017-04-14T02:50:35.316Z,8.05
2017-04-14T02:51:35.638Z,10.33
2017-04-14T02:52:35.918Z,15.32
2017-04-14T02:53:36.178Z,9.82
2017-04-14T02:54:36.654Z,15.45
2017-04-14T02:55:36.902Z,8.23
2017-04-14T02:56:37.157Z,8.27
2017-04-14T02:57:37.438Z,12.37
2017-04-14T02:58:37.681Z,11.48
2017-04-14T02:59:37.924Z,13.80
2017-04-14T03:00:38.170Z,9.62
2017-04-14T03:01:38.426Z,11.22
2017-04-14T03:02:38.753Z,11.72
2017-04-14T03:03:38.998Z,11.80
2017-04-14T03:04:39.232Z,10.23
2017-04-14T03:05:39.487Z,8.42
2017-04-14T03:06:39.727Z,9.07
2017-04-14T03:07:40.013Z,9.65
2017-04-14T03:08:40.243Z,12.77
2017-04-14T03:09:40.495Z,10.35
2017-04-14T03:10:40.770Z,13.40
2017-04-14T03:11:40.998Z,12.83
2017-04-14T03:12:40.525Z,14.97
2017-04-14T03:13:40.723Z,10.78
2017-04-14T03:14:40.930Z,14.77
2017-04-14T03:15:41.166Z,12.48
2017-04-14T03:16:41.442Z,8.62
2017-04-14T03:17:41.794Z,11.03
2017-04-14T03:18:42.042Z,12.43
2017-04-14T03:19:42.287Z,10.18
2017-04-14T03:20:42.504Z,12.22
2017-04-14T03:21:42.742Z,17.03
2017-04-14T03:22:43.002Z,15.82
2017-04-14T03:23:43.208Z,11.50
2017-04-14T03:24:43.458Z,13.58
2017-04-14T03:25:43.654Z,11.43
2017-04-14T03:26:43.925Z,15.37
2017-04-14T03:27:44.407Z,15.08
2017-04-14T03:28:44.653Z,13.37
2017-04-14T03:29:45.636Z,12.50
2017-04-14T03:30:45.893Z,16.82
2017-04-14T03:31:46.223Z,8.88
2017-04-14T03:32:46.730Z,11.50
2017-04-14T03:33:47.677Z,12.02
2017-04-14T03:34:47.964Z,14.12
2017-04-14T03:35:48.578Z,10.72
2017-04-14T03:36:48.048Z,17.20
2017-04-14T03:37:48.365Z,20.92
2017-04-14T03:38:48.689Z,13.10
2017-04-14T03:39:49.090Z,14.28
2017-04-14T03:40:49.511Z,12.98
2017-04-14T03:41:49.818Z,12.95
2017-04-14T03:42:50.463Z,23.25
2017-04-14T03:43:50.863Z,20.42
2017-04-14T03:44:51.284Z,17.07
2017-04-14T03:45:51.572Z,12.63
2017-04-14T03:46:51.955Z,18.60
2017-04-14T03:47:52.233Z,19.55
2017-04-14T03:48:52.571Z,21.20
2017-04-14T03:49:53.130Z,13.53
2017-04-14T03:50:53.419Z,16.02
2017-04-14T03:51:53.836Z,13.17
2017-04-14T03:52:54.326Z,15.82
2017-04-14T03:53:54.866Z,16.03
2017-04-14T03:54:55.075Z,14.63
2017-04-14T03:55:55.458Z,14.12
2017-04-14T03:56:55.777Z,14.45
2017-04-14T03:57:56.953Z,14.77
2017-04-14T03:58:57.242Z,12.48
2017-04-14T03:59:58.473Z,15.37
2017-04-14T04:00:58.733Z,15.42
2017-04-14T04:01:59.031Z,9.68
2017-04-14T04:02:59.282Z,13.85
2017-04-14T04:03:59.658Z,12.50
2017-04-14T04:04:59.941Z,15.55
2017-04-14T04:06:00.171Z,15.48
2017-04-14T04:07:00.501Z,12.93
2017-04-14T04:08:00.993Z,12.92
2017-04-14T04:09:02.238Z,11.18
2017-04-14T04:10:02.513Z,19.25
2017-04-14T04:11:02.801Z,14.67
2017-04-14T04:12:03.046Z,12.07
2017-04-14T04:13:03.277Z,15.70
2017-04-14T04:14:03.526Z,18.72
2017-04-14T04:15:03.843Z,18.20
2017-04-14T04:16:04.142Z,13.07
2017-04-14T04:17:04.395Z,12.88
2017-04-14T04:18:04.645Z,13.60
2017-04-14T04:19:04.865Z,14.92
2017-04-14T04:20:05.190Z,15.80
2017-04-14T04:21:05.442Z,11.23
2017-04-14T04:22:05.697Z,15.13
2017-04-14T04:23:05.993Z,13.08
2017-04-14T04:24:06.257Z,12.65
2017-04-14T04:25:06.593Z,17.13
2017-04-14T04:26:06.821Z,17.27
2017-04-14T04:27:07.057Z,15.40
2017-04-14T04:28:07.447Z,15.80
2017-04-14T04:29:07.710Z,12.07
2017-04-14T04:30:07.974Z,14.75
2017-04-14T04:31:08.220Z,12.82
2017-04-14T04:33:17.573Z,13.43
2017-04-14T04:34:17.992Z,14.50
2017-04-14T04:35:18.333Z,12.85
2017-04-14T04:36:18.566Z,10.73
2017-04-14T04:37:19.089Z,14.45
2017-04-14T04:38:19.408Z,20.52
2017-04-14T04:39:19.653Z,12.30
2017-04-14T04:40:20.073Z,16.95
2017-04-14T04:41:20.310Z,15.20
2017-04-14T04:42:20.547Z,14.22
2017-04-14T04:43:20.801Z,16.93
2017-04-14T04:44:21.093Z,14.52
2017-04-14T04:45:21.407Z,8.92
2017-04-14T04:46:21.665Z,17.47
2017-04-14T04:47:21.911Z,16.90
2017-04-14T04:48:22.168Z,16.43
2017-04-14T04:49:22.423Z,14.55
2017-04-14T04:50:23.366Z,20.63
2017-04-14T04:51:23.639Z,19.73
2017-04-14T04:52:23.920Z,18.52
2017-04-14T04:53:24.904Z,16.80
2017-04-14T04:54:25.488Z,14.93
2017-04-14T04:55:25.858Z,11.65
2017-04-14T04:56:26.227Z,14.35
2017-04-14T04:57:26.558Z,17.32
2017-04-14T04:58:26.800Z,16.87
2017-04-14T04:59:27.160Z,16.33
2017-04-14T05:00:27.518Z,15.12
2017-04-14T05:01:28.747Z,15.35
2017-04-14T05:02:29.183Z,22.22
2017-04-14T05:03:29.447Z,13.85
2017-04-14T05:04:29.885Z,15.87
2017-04-14T05:05:30.305Z,17.25
2017-04-14T05:06:30.610Z,18.72
2017-04-14T05:07:31.022Z,19.55
2017-04-14T05:08:31.652Z,17.95
2017-04-14T05:09:31.989Z,13.67
2017-04-14T05:10:32.302Z,18.82
2017-04-14T05:11:32.976Z,15.38
2017-04-14T05:12:33.254Z,17.67
2017-04-14T05:13:33.503Z,13.78
2017-04-14T05:14:33.842Z,16.42
2017-04-14T05:15:34.049Z,13.12
2017-04-14T05:16:34.308Z,14.62
2017-04-14T05:17:34.690Z,18.05
2017-04-14T05:18:35.701Z,17.78
2017-04-14T05:19:35.938Z,18.75
2017-04-14T05:20:36.196Z,22.28
2017-04-14T05:21:36.461Z,12.60
2017-04-14T05:22:36.809Z,17.28
2017-04-14T05:23:37.085Z,16.13
2017-04-14T05:24:37.305Z,16.90
2017-04-14T05:25:37.540Z,14.92
2017-04-14T05:26:37.770Z,18.65
2017-04-14T05:27:37.982Z,14.67
2017-04-14T05:28:38.241Z,17.33
2017-04-14T05:29:38.474Z,15.12
2017-04-14T05:30:38.694Z,19.62
2017-04-14T05:31:38.978Z,27.50
2017-04-14T05:32:39.286Z,19.92
2017-04-14T05:33:39.521Z,22.58
2017-04-14T05:34:39.725Z,16.67
2017-04-14T05:35:40.698Z,22.95
2017-04-14T05:36:40.938Z,16.48
2017-04-14T05:37:41.188Z,21.55
2017-04-14T05:38:41.442Z,21.37
2017-04-14T05:39:41.812Z,15.23
2017-04-14T05:40:42.034Z,19.93
2017-04-14T05:41:42.260Z,14.50
2017-04-14T05:42:42.622Z,20.60
2017-04-14T05:43:42.886Z,14.85
2017-04-14T05:44:43.140Z,16.75
2017-04-14T05:45:43.364Z,17.10
2017-04-14T05:46:44.313Z,13.55
2017-04-14T05:47:45.252Z,12.85
2017-04-14T05:48:45.510Z,10.53
2017-04-14T05:49:45.735Z,16.60
2017-04-14T05:50:45.942Z,18.60
2017-04-14T05:51:46.173Z,14.22
2017-04-14T05:52:46.562Z,20.43
2017-04-14T05:53:46.827Z,19.93
2017-04-14T05:54:47.061Z,14.52
2017-04-14T05:55:47.342Z,13.15
2017-04-14T05:56:47.618Z,14.60
2017-04-14T05:57:47.930Z,16.17
2017-04-14T05:58:48.262Z,13.23
2017-04-14T05:59:48.662Z,13.78
2017-04-14T06:00:49.218Z,13.88
2017-04-14T06:01:49.743Z,15.95
2017-04-14T06:02:50.039Z,14.18
2017-04-14T06:03:50.652Z,9.93
2017-04-14T06:04:51.665Z,23.45
2017-04-14T06:05:52.297Z,13.38
2017-04-14T06:06:52.902Z,15.42
2017-04-14T06:07:53.305Z,19.82
2017-04-14T06:08:54.064Z,14.55
2017-04-14T06:09:54.355Z,20.80
2017-04-14T06:10:54.710Z,15.42
2017-04-14T06:11:55.049Z,17.22
2017-04-14T06:12:55.343Z,16.92
2017-04-14T06:13:56.427Z,18.57
2017-04-14T06:14:56.688Z,15.45
2017-04-14T06:15:57.881Z,14.93
2017-04-14T06:16:58.156Z,13.60
2017-04-14T06:17:59.034Z,15.83
2017-04-14T06:18:59.291Z,13.52
2017-04-14T06:19:59.639Z,11.92
2017-04-14T06:21:00.001Z,18.43
2017-04-14T06:22:00.334Z,13.80
2017-04-14T06:23:00.584Z,14.80
2017-04-14T06:24:00.917Z,15.82
2017-04-14T06:25:01.183Z,13.75
2017-04-14T06:26:01.485Z,11.90
2017-04-14T06:27:01.749Z,13.10
2017-04-14T06:28:02.022Z,11.88
2017-04-14T06:29:02.271Z,11.10
2017-04-14T06:30:02.502Z,17.12
2017-04-14T06:31:03.410Z,16.98
2017-04-14T06:32:03.898Z,15.25
2017-04-14T06:33:04.173Z,17.27
2017-04-14T06:34:05.171Z,19.13
2017-04-14T06:35:05.484Z,12.82
2017-04-14T06:36:05.934Z,16.20
2017-04-14T06:37:06.186Z,14.12
2017-04-14T06:38:06.444Z,14.85
2017-04-14T06:39:06.838Z,14.48
2017-04-14T06:40:07.077Z,14.65
2017-04-14T06:41:07.371Z,12.78
2017-04-14T06:42:07.665Z,13.55
2017-04-14T06:43:07.924Z,14.55
2017-04-14T06:44:08.293Z,16.58
2017-04-14T06:45:08.564Z,15.08
2017-04-14T06:46:08.861Z,11.87
2017-04-14T06:47:09.094Z,11.72
2017-04-14T06:48:09.313Z,20.18
2017-04-14T06:49:09.687Z,15.25
2017-04-14T06:50:10.142Z,17.58
2017-04-14T06:51:11.049Z,13.73
2017-04-14T06:52:11.392Z,14.30
2017-04-14T06:53:11.985Z,16.52
2017-04-14T06:54:12.401Z,12.67
2017-04-14T06:55:12.814Z,14.50
2017-04-14T06:56:13.243Z,14.03
2017-04-14T06:57:13.674Z,16.12
2017-04-14T06:58:14.552Z,17.07
2017-04-14T06:59:14.807Z,14.95
2017-04-14T07:00:15.122Z,15.33
2017-04-14T07:01:15.673Z,19.22
2017-04-14T07:02:15.958Z,16.95
2017-04-14T07:03:16.270Z,16.73
2017-04-14T07:04:16.538Z,17.38
2017-04-14T07:05:16.809Z,16.12
2017-04-14T07:06:17.098Z,12.55
2017-04-14T07:07:17.379Z,17.20
2017-04-14T07:08:17.630Z,18.50
2017-04-14T07:09:17.869Z,14.52
2017-04-14T07:10:18.125Z,15.38
2017-04-14T07:11:18.466Z,14.47
2017-04-14T07:12:18.710Z,15.15
2017-04-14T07:13:18.967Z,14.20
2017-04-14T07:14:19.195Z,13.97
2017-04-14T07:15:19.429Z,18.47
2017-04-14T07:16:19.848Z,15.88
2017-04-14T07:17:20.091Z,16.15
2017-04-14T07:18:20.409Z,16.20
2017-04-14T07:19:20.629Z,19.83
2017-04-14T07:20:20.861Z,17.62
2017-04-14T07:21:21.169Z,12.82
2017-04-14T07:22:21.405Z,19.77
2017-04-14T07:23:21.704Z,13.30
2017-04-14T07:24:21.990Z,16.42
2017-04-14T07:25:22.222Z,17.78
2017-04-14T07:26:22.738Z,21.08
2017-04-14T07:27:23.018Z,13.45
2017-04-14T07:28:23.415Z,13.22
2017-04-14T07:29:23.651Z,13.60
2017-04-14T07:30:23.942Z,12.23
2017-04-14T07:31:24.245Z,20.63
2017-04-14T07:32:24.558Z,17.27
2017-04-14T07:33:24.996Z,16.32
2017-04-14T07:34:25.307Z,12.80
2017-04-14T07:35:25.601Z,16.05
2017-04-14T07:36:25.981Z,20.60
2017-04-14T07:37:26.695Z,15.53
2017-04-14T07:38:27.297Z,16.73
2017-04-14T07:39:28.288Z,14.38
2017-04-14T07:40:28.513Z,15.85
2017-04-14T07:41:28.803Z,12.53
2017-04-14T07:42:29.049Z,13.80
2017-04-14T07:43:29.601Z,16.55
2017-04-14T07:44:29.936Z,18.68
2017-04-14T07:45:30.287Z,17.08
2017-04-14T07:46:30.590Z,16.77
2017-04-14T07:47:30.933Z,14.17
2017-04-14T07:48:31.921Z,11.35
2017-04-14T07:49:32.930Z,13.17
2017-04-14T07:50:33.382Z,14.03
2017-04-14T07:51:33.713Z,15.55
2017-04-14T07:52:34.689Z,14.98
2017-04-14T07:53:34.903Z,13.37
2017-04-14T07:54:35.178Z,16.38
2017-04-14T07:55:35.436Z,14.57
2017-04-14T07:56:35.686Z,19.43
2017-04-14T07:57:35.935Z,15.88
2017-04-14T07:58:36.183Z,10.52
2017-04-14T07:59:36.408Z,17.27
2017-04-14T08:00:36.711Z,16.90
2017-04-14T08:01:37.027Z,16.72
2017-04-14T08:02:37.260Z,16.92
2017-04-14T08:03:37.567Z,16.93
2017-04-14T08:04:37.796Z,14.23
2017-04-14T08:05:38.078Z,13.95
2017-04-14T08:06:38.432Z,16.15
2017-04-14T08:07:38.811Z,17.50
2017-04-14T08:08:38.693Z,14.72
2017-04-14T08:09:38.987Z,16.12
2017-04-14T08:10:39.593Z,13.48
2017-04-14T08:11:39.851Z,18.57
2017-04-14T08:12:40.211Z,9.57
2017-04-14T08:13:40.662Z,17.02
2017-04-14T08:14:41.129Z,17.32
2017-04-14T08:15:41.582Z,13.12
2017-04-14T08:16:41.966Z,13.25
2017-04-14T08:17:42.254Z,16.53
2017-04-14T08:18:42.624Z,13.30
2017-04-14T08:19:42.871Z,15.20
2017-04-14T08:20:43.084Z,12.43
2017-04-14T08:21:43.333Z,16.20
2017-04-14T08:22:43.578Z,12.17
2017-04-14T08:23:44.154Z,13.23
2017-04-14T08:24:44.357Z,12.23
2017-04-14T08:25:44.717Z,11.25
2017-04-14T08:26:44.947Z,11.98
2017-04-14T08:27:45.183Z,14.33
2017-04-14T08:28:45.458Z,15.67
2017-04-14T08:29:45.695Z,13.15
2017-04-14T08:30:45.913Z,15.22
2017-04-14T08:31:46.213Z,16.42
2017-04-14T08:32:46.481Z,14.80
2017-04-14T08:33:47.522Z,12.13
2017-04-14T08:34:47.754Z,12.52
2017-04-14T08:35:48.026Z,10.70
2017-04-14T08:36:48.258Z,12.92
2017-04-14T08:37:48.517Z,14.67
2017-04-14T08:38:49.052Z,16.88
2017-04-14T08:39:49.325Z,12.17
2017-04-14T08:40:49.558Z,12.13
2017-04-14T08:41:49.927Z,10.25
2017-04-14T08:42:50.154Z,14.65
2017-04-14T08:43:49.630Z,10.37
2017-04-14T08:44:49.894Z,13.88
2017-04-14T08:45:50.146Z,15.23
2017-04-14T08:46:50.393Z,16.42
2017-04-14T08:47:50.617Z,14.87
2017-04-14T08:48:50.840Z,13.85
2017-04-14T08:49:51.805Z,15.18
2017-04-14T08:50:52.129Z,18.15
2017-04-14T08:51:53.381Z,15.68
2017-04-14T08:52:54.001Z,12.73
2017-04-14T08:53:54.506Z,14.62
2017-04-14T08:54:54.845Z,14.93
2017-04-14T08:55:55.127Z,13.88
2017-04-14T08:56:55.355Z,12.27
2017-04-14T08:57:55.681Z,9.05
2017-04-14T08:58:55.940Z,16.72
2017-04-14T08:59:56.206Z,12.48
2017-04-14T09:00:56.481Z,12.85
2017-04-14T09:01:57.013Z,13.45
2017-04-14T09:02:57.245Z,13.27
2017-04-14T09:03:57.762Z,10.00
2017-04-14T09:04:58.135Z,12.20
2017-04-14T09:05:59.550Z,14.93
2017-04-14T09:06:59.775Z,11.82
2017-04-14T09:08:00.723Z,12.68
2017-04-14T09:09:00.945Z,13.12
2017-04-14T09:10:01.590Z,9.57
2017-04-14T09:11:01.873Z,11.23
2017-04-14T09:12:02.128Z,13.70
2017-04-14T09:13:02.410Z,16.43
2017-04-14T09:14:03.541Z,9.82
2017-04-14T09:15:03.961Z,12.05
2017-04-14T09:16:04.606Z,12.18
2017-04-14T09:17:05.069Z,13.68
2017-04-14T09:18:05.535Z,10.83
2017-04-14T09:19:05.800Z,12.98
2017-04-14T09:20:06.314Z,13.37
2017-04-14T09:21:06.556Z,13.87
2017-04-14T09:22:06.990Z,13.33
2017-04-14T09:23:07.233Z,15.22
2017-04-14T09:24:07.534Z,10.57
2017-04-14T09:25:07.832Z,11.75
2017-04-14T09:26:08.357Z,13.05
2017-04-14T09:27:08.608Z,15.82
2017-04-14T09:28:08.933Z,12.58
2017-04-14T09:29:09.211Z,12.70
2017-04-14T09:30:09.634Z,12.16
2017-04-14T09:31:09.945Z,13.47
2017-04-14T09:32:10.188Z,12.86
2017-04-14T09:33:10.493Z,11.94
2017-04-14T09:34:10.832Z,9.16
2017-04-14T09:35:12.079Z,12.56
2017-04-14T09:36:12.373Z,13.71
2017-04-14T09:37:13.798Z,14.73
2017-04-14T09:38:14.238Z,11.51
2017-04-14T09:39:14.525Z,12.94
2017-04-14T09:40:15.238Z,13.00
2017-04-14T09:41:15.559Z,11.17
2017-04-14T09:42:15.891Z,15.84
2017-04-14T09:43:16.151Z,15.34
2017-04-14T09:44:16.461Z,15.66
2017-04-14T09:45:16.753Z,14.77
2017-04-14T09:46:17.025Z,15.55
2017-04-14T09:47:17.275Z,13.85
2017-04-14T09:48:17.683Z,13.35
2017-04-14T09:49:18.013Z,15.84
2017-04-14T09:50:18.537Z,10.10
2017-04-14T09:51:18.802Z,13.50
2017-04-14T09:52:19.073Z,14.60
2017-04-14T09:53:19.390Z,14.70
2017-04-14T09:54:19.662Z,14.33
2017-04-14T09:55:20.053Z,12.01
2017-04-14T09:56:20.601Z,14.67
2017-04-14T09:57:21.621Z,11.47
2017-04-14T09:58:21.989Z,11.46
2017-04-14T09:59:22.399Z,8.33
2017-04-14T10:00:23.021Z,14.87
2017-04-14T10:01:23.267Z,10.10
2017-04-14T10:02:23.566Z,9.21
2017-04-14T10:03:24.105Z,8.69
2017-04-14T10:04:24.358Z,12.97
2017-04-14T10:05:24.665Z,11.77
2017-04-14T10:06:24.935Z,14.47
2017-04-14T10:07:25.175Z,11.74
2017-04-14T10:08:25.436Z,11.69
2017-04-14T10:09:25.783Z,11.03
2017-04-14T10:10:26.097Z,7.90
2017-04-14T10:11:26.375Z,10.40
2017-04-14T10:12:26.635Z,13.86
2017-04-14T10:13:27.208Z,10.87
2017-04-14T10:14:27.457Z,11.41
2017-04-14T10:15:27.753Z,11.77
2017-04-14T10:16:28.073Z,10.00
2017-04-14T10:17:28.421Z,10.20
2017-04-14T10:18:28.738Z,11.78
2017-04-14T10:19:29.066Z,13.00
2017-04-14T10:20:29.379Z,11.15
2017-04-14T10:21:29.762Z,8.04
2017-04-14T10:22:30.081Z,8.75
2017-04-14T10:23:30.420Z,10.17
2017-04-14T10:24:30.661Z,9.83
2017-04-14T10:25:31.126Z,12.06
2017-04-14T10:26:31.383Z,10.79
2017-04-14T10:27:31.642Z,11.07
2017-04-14T10:28:32.340Z,11.08
2017-04-14T10:29:32.581Z,10.08
2017-04-14T10:30:33.046Z,15.55
2017-04-14T10:31:33.288Z,9.44
2017-04-14T10:32:34.908Z,8.63
2017-04-14T10:33:35.334Z,10.67
2017-04-14T10:34:35.745Z,11.50
2017-04-14T10:35:36.033Z,7.57
2017-04-14T10:36:36.247Z,8.30
2017-04-14T10:37:36.478Z,11.73
2017-04-14T10:38:36.818Z,9.88
2017-04-14T10:39:37.073Z,11.28
2017-04-14T10:40:37.398Z,9.42
2017-04-14T10:41:37.665Z,9.13
2017-04-14T10:42:38.858Z,11.37
2017-04-14T10:43:39.109Z,11.13
2017-04-14T10:44:39.339Z,9.53
2017-04-14T10:45:39.638Z,10.76
2017-04-14T10:46:40.087Z,13.04
2017-04-14T10:47:40.366Z,11.83
2017-04-14T10:48:40.611Z,12.49
2017-04-14T10:49:40.853Z,12.63
2017-04-14T10:50:41.150Z,13.21
2017-04-14T10:51:41.643Z,11.14
2017-04-14T10:52:41.918Z,10.39
2017-04-14T10:53:42.194Z,7.14
2017-04-14T10:54:42.620Z,5.76
2017-04-14T10:55:42.986Z,6.01
2017-04-14T10:56:43.229Z,6.97
2017-04-14T10:57:43.497Z,10.19
2017-04-14T10:58:44.210Z,6.46
2017-04-14T10:59:44.471Z,4.37
2017-04-14T11:00:44.801Z,6.78
2017-04-14T11:01:45.049Z,35.97
2017-04-14T11:02:45.305Z,8.40
2017-04-14T11:03:45.555Z,10.33
2017-04-14T11:04:45.782Z,9.00
2017-04-14T11:05:46.069Z,10.00
2017-04-14T11:06:46.307Z,11.27
2017-04-14T11:07:46.545Z,11.87
2017-04-14T11:08:46.771Z,14.52
2017-04-14T11:09:47.091Z,8.97
2017-04-14T11:10:47.342Z,11.07
2017-04-14T11:11:47.558Z,10.03
2017-04-14T11:12:47.777Z,11.88
2017-04-14T11:13:48.009Z,9.73
2017-04-14T11:14:48.311Z,10.17
2017-04-14T11:15:48.637Z,8.98
2017-04-14T11:16:48.858Z,8.17
2017-04-14T11:17:49.174Z,8.58
2017-04-14T11:18:49.443Z,7.55
2017-04-14T11:19:49.740Z,7.57
2017-04-14T11:20:49.973Z,7.53
2017-04-14T11:21:50.928Z,8.95
2017-04-14T11:22:51.356Z,9.55
2017-04-14T11:23:51.643Z,6.47
2017-04-14T11:24:51.934Z,9.05
2017-04-14T11:25:52.406Z,11.13
2017-04-14T11:26:52.631Z,10.57
2017-04-14T11:27:52.999Z,5.83
2017-04-14T11:28:53.366Z,5.97
2017-04-14T11:29:53.654Z,7.82
2017-04-14T11:30:54.003Z,9.22
2017-04-14T11:31:54.487Z,10.37
2017-04-14T11:32:54.765Z,9.40
2017-04-14T11:33:55.318Z,7.03
2017-04-14T11:34:55.738Z,7.40
2017-04-14T11:35:56.158Z,11.30
2017-04-14T11:36:56.523Z,8.25
2017-04-14T11:37:56.760Z,7.75
2017-04-14T11:38:57.066Z,10.92
2017-04-14T11:39:57.416Z,6.20
2017-04-14T11:40:57.689Z,6.63
2017-04-14T11:41:57.932Z,6.40
2017-04-14T11:42:58.158Z,7.68
2017-04-14T11:43:58.461Z,4.90
2017-04-14T11:44:58.778Z,5.17
2017-04-14T11:45:59.826Z,6.68
2017-04-14T11:47:00.378Z,9.98
2017-04-14T11:48:01.086Z,8.15
2017-04-14T11:49:01.747Z,6.97
2017-04-14T11:50:02.504Z,4.38
2017-04-14T11:51:02.710Z,6.12
2017-04-14T11:52:03.602Z,6.50
2017-04-14T11:53:03.827Z,6.83
2017-04-14T11:54:04.492Z,5.92
2017-04-14T11:55:04.962Z,5.17
2017-04-14T11:56:05.190Z,4.65
2017-04-14T11:57:05.597Z,7.50
2017-04-14T11:58:06.570Z,4.15
2017-04-14T11:59:06.825Z,7.93
2017-04-14T12:00:07.109Z,6.28
2017-04-14T12:01:07.318Z,4.65
2017-04-14T12:02:07.819Z,4.82
2017-04-14T12:03:08.088Z,5.30
2017-04-14T12:04:08.316Z,4.95
2017-04-14T12:05:09.355Z,5.05
2017-04-14T12:06:09.624Z,9.37
2017-04-14T12:07:09.854Z,7.73
2017-04-14T12:08:10.143Z,5.22
2017-04-14T12:09:10.484Z,4.78
2017-04-14T12:10:10.797Z,6.97
2017-04-14T12:11:11.417Z,9.65
2017-04-14T12:12:11.638Z,6.03
2017-04-14T12:13:11.932Z,3.87
2017-04-14T12:14:12.298Z,5.17
2017-04-14T12:15:12.587Z,7.28
2017-04-14T12:16:12.886Z,5.50
2017-04-14T12:17:13.225Z,6.43
2017-04-14T12:18:13.510Z,5.08
2017-04-14T12:19:13.905Z,9.02
2017-04-14T12:20:14.208Z,6.03
2017-04-14T12:21:14.765Z,5.42
2017-04-14T12:22:15.565Z,5.32
2017-04-14T12:23:16.138Z,3.52
2017-04-14T12:24:17.036Z,5.50
2017-04-14T12:25:17.401Z,4.78
2017-04-14T12:26:17.711Z,4.87
2017-04-14T12:27:17.945Z,5.77
2017-04-14T12:28:18.358Z,6.23
2017-04-14T12:29:18.621Z,4.37
2017-04-14T12:30:20.501Z,22.65
2017-04-14T12:31:20.781Z,8.72
2017-04-14T12:32:21.122Z,5.15
2017-04-14T12:33:21.403Z,5.10
2017-04-14T12:34:21.669Z,4.95
2017-04-14T12:35:22.002Z,8.02
2017-04-14T12:36:24.297Z,6.65
2017-04-14T12:37:24.605Z,4.78
2017-04-14T12:38:25.140Z,5.38
2017-04-14T12:39:25.430Z,4.18
2017-04-14T12:40:25.809Z,6.07
2017-04-14T12:41:26.386Z,7.12
2017-04-14T12:42:28.161Z,6.87
2017-04-14T12:43:28.447Z,6.52
2017-04-14T12:44:28.802Z,4.65
2017-04-14T12:45:29.094Z,5.12
2017-04-14T12:46:29.405Z,6.02
2017-04-14T12:47:29.665Z,4.40
2017-04-14T12:48:29.922Z,6.60
2017-04-14T12:49:30.154Z,6.37
2017-04-14T12:50:30.481Z,5.17
2017-04-14T12:51:30.757Z,4.65
2017-04-14T12:52:31.312Z,5.60
2017-04-14T12:53:32.062Z,3.75
2017-04-14T12:54:32.341Z,6.82
2017-04-14T12:55:32.630Z,5.30
2017-04-14T12:56:32.886Z,4.42
2017-04-14T12:57:33.171Z,8.10
2017-04-14T12:58:33.438Z,4.55
2017-04-14T12:59:33.886Z,9.55
2017-04-14T13:00:34.938Z,4.52
2017-04-14T13:01:35.548Z,6.05
2017-04-14T13:02:36.462Z,4.45
2017-04-14T13:03:37.134Z,3.65
2017-04-14T13:04:37.410Z,8.37